Latest Coastal Weather Observations for Cape Sorell

IDT60701

Issued at 7:27 pm EDT Monday 26 January 2015 (issued every 10 minutes, with the page automatically refreshed every 10 minutes)

About coastal observations | Map of coastal stations | Coastal observations for TAS | Marine services | Other Formats
Station Details ID: 097000 Name: CAPE SORELL Lat: -42.20 Lon: 145.17 Height: 19.3 m
Data from the previous 72 hours. | See also: Recent months at Cape Sorell
Date/Time
EDT
Temp

°C
Wind Pressure Rain
since 9am
mm
Weather Cloud Vis
km
Sea
Height
m
Swell
Dir
 
Speed
knots
Gust
knots
hPa Trend Height
m
Period
s
Dir
26/07:00pm 13.9 WSW 5 7 1016.6 - 0.0 - - - - - - -
26/06:30pm 14.5 WSW 6 8 1016.4 - 0.0 - - - - - - -
26/06:00pm 15.5 WSW 6 9 1016.3 - 0.0 - - - - - - -
26/05:30pm 16.4 SW 7 10 1016.3 - 0.0 - - - - - - -
26/05:00pm 16.3 WSW 10 12 1016.4 - 0.0 - - - - - - -
26/04:30pm 16.6 WSW 9 12 1016.4 - 0.0 - - - - - - -
26/04:00pm 17.2 WSW 6 9 1016.5 - 0.0 - - - - - - -
26/03:30pm 16.8 WSW 11 15 1016.6 - 0.0 - - - - - - -
26/03:00pm 16.3 WSW 11 15 1016.4 - 0.0 - - - - - - -
26/02:30pm 16.2 WSW 10 13 1016.3 - 0.0 - - - - - - -
26/02:00pm 16.3 WSW 11 15 1016.4 - 0.0 - - - - - - -
26/01:30pm 16.1 WSW 12 16 1016.4 - 0.0 - - - - - - -
26/01:00pm 16.0 WSW 11 14 1016.4 - 0.0 - - - - - - -
26/12:30pm 15.6 WSW 9 12 1016.3 - 0.0 - - - - - - -
26/12:00pm 14.8 SW 12 16 1016.2 - 0.0 - - - - - - -
26/11:30am 14.6 SW 15 18 1016.0 - 0.0 - - - - - - -
26/11:00am 13.5 SW 16 19 1015.7 - 0.0 - - - - - - -
26/10:30am 13.7 SW 16 21 1015.1 - 0.0 - - - - - - -
26/10:00am 13.5 SW 16 19 1014.8 - 0.0 - - - - - - -
26/09:30am 13.1 WSW 15 19 1014.5 - 0.0 - - - - - - -
26/09:00am 12.9 SW 16 21 1014.1 - 8.8 - - - - - - -
26/08:30am 12.9 WSW 15 19 1013.7 - 8.8 - - - - - - -
26/08:00am 12.4 WSW 14 18 1013.0 - 8.8 - - - - - - -
26/07:30am 11.8 SW 16 20 1012.5 - 8.8 - - - - - - -
26/07:00am 11.3 SSW 19 24 1012.0 - 8.8 - - - - - - -
26/06:49am 11.8 SW 16 28 1011.7 - 8.6 - - - - - - -
26/06:30am 12.1 SW 14 17 1011.6 - 8.4 - - - - - - -
26/06:00am 11.6 SW 15 18 1011.2 - 8.4 - - - - - - -
26/05:30am 11.7 SW 18 20 1010.6 - 8.4 - - - - - - -
26/05:00am 11.4 SW 17 20 1010.4 - 8.4 - - - - - - -
26/04:30am 10.9 WSW 17 24 1010.0 - 8.4 - - - - - - -
26/04:00am 12.1 WSW 19 23 1009.9 - 8.0 - - - - - - -
26/03:30am 12.0 WSW 19 22 1009.6 - 8.0 - - - - - - -
26/03:00am 11.6 WSW 23 27 1009.2 - 8.0 Recent precip. - - - - - -
26/02:30am 11.1 SW 19 24 1009.2 - 8.0 - - - - - - -
26/02:11am 11.4 WSW 15 25 1008.9 - 8.0 - - - - - - -
26/02:00am 11.6 SW 16 20 1009.1 - 7.8 - - - - - - -
26/01:30am 10.9 SW 27 33 1008.7 - 7.8 - - - - - - -
26/01:24am 11.5 WSW 23 33 1008.4 - 7.6 - - - - - - -
26/01:00am 11.3 WSW 21 25 1008.6 - 7.6 - - - - - - -
26/12:38am 11.3 WSW 17 28 1008.5 - 7.2 - - - - - - -
26/12:30am 11.5 WSW 16 21 1008.5 - 7.2 - - - - - - -
26/12:00am 11.7 WSW 22 27 1008.0 - 7.2 - - - - - - -
 
Date/Time
EDT
Temp

°C
Wind Pressure Rain
since 9am
mm
Weather Cloud Vis
km
Sea
Height
m
Swell
Dir
 
Speed
knots
Gust
knots
hPa Trend Height
m
Period
s
Dir
25/11:30pm 11.1 WSW 19 24 1008.0 - 7.2 - - - - - - -
25/11:05pm 10.4 SW 25 37 1007.8 - 7.2 - - - - - - -
25/11:00pm 10.0 SW 29 43 1007.7 - 7.2 - - - - - - -
25/10:58pm 10.5 WSW 28 43 1007.4 - 7.0 - - - - - - -
25/10:54pm 11.6 WSW 22 43 1006.9 - 6.6 - - - - - - -
25/10:53pm 12.2 W 20 43 1006.8 - 6.6 - - - - - - -
25/10:52pm 12.6 W 18 31 1007.5 - 6.6 - - - - - - -
25/10:30pm 12.1 W 18 24 1007.5 - 6.6 - - - - - - -
25/10:00pm 12.2 W 17 22 1007.4 - 6.6 - - - - - - -
25/09:30pm 11.8 WSW 16 23 1007.1 - 6.6 - - - - - - -
25/09:00pm 12.1 W 15 26 1006.4 - 6.6 - - - - - - -
25/08:31pm 12.1 WSW 18 30 1006.3 - 6.6 - - - - - - -
25/08:30pm 11.9 WSW 17 23 1006.5 - 6.6 - - - - - - -
25/08:00pm 11.8 WSW 19 27 1005.9 - 6.6 - - - - - - -
25/07:30pm 11.6 WSW 19 24 1005.5 - 6.6 - - - - - - -
25/07:00pm 12.1 WSW 18 23 1005.2 - 6.6 - - - - - - -
25/06:34pm 11.5 WSW 15 27 1004.7 - 6.4 - - - - - - -
25/06:30pm 11.6 WSW 15 20 1004.7 - 6.4 - - - - - - -
25/06:00pm 11.8 WSW 14 17 1004.6 - 6.4 Recent precip. - - - - - -
25/05:30pm 10.5 WSW 25 30 1004.1 - 6.2 - - - - - - -
25/05:05pm 11.7 WSW 20 31 1003.7 - 6.0 - - - - - - -
25/05:00pm 11.6 WSW 19 25 1003.5 - 5.8 - - - - - - -
25/04:30pm 11.2 WSW 24 35 1003.4 - 5.8 - - - - - - -
25/04:22pm 12.7 WSW 20 34 1003.2 - 5.0 - - - - - - -
25/04:00pm 13.5 W 20 28 1002.9 - 4.8 - - - - - - -
25/03:54pm 12.9 W 17 27 1002.8 - 4.8 - - - - - - -
25/03:30pm 13.7 W 18 26 1002.8 - 4.8 - - - - - - -
25/03:00pm 14.1 W 12 18 1003.0 - 4.8 - - - - - - -
25/02:30pm 11.8 WNW 14 19 1003.0 - 4.8 - - - - - - -
25/02:00pm 12.2 WNW 11 15 1002.7 - 4.8 - - - - - - -
25/01:30pm 10.8 W 16 23 1002.5 - 4.8 - - - - - - -
25/01:00pm 12.3 W 17 23 1001.8 - 4.8 - - - - - - -
25/12:30pm 11.4 W 15 20 1001.7 - 4.8 - - - - - - -
25/12:00pm 10.9 W 17 29 1001.6 - 4.6 Rain - - - - - -
25/11:56am 11.1 W 12 28 1001.3 - 4.6 - - - - - - -
25/11:30am 12.4 NW 8 11 1001.6 - 3.8 - - - - - - -
25/11:00am 10.8 NW 11 19 1001.6 - 3.6 - - - - - - -
25/10:30am 9.9 WNW 17 27 1001.6 - 3.2 - - - - - - -
25/10:19am 12.0 WSW 14 28 1001.0 - 0.4 - - - - - - -
25/10:00am 12.6 WNW 11 16 1001.0 - 0.0 - - - - - - -
25/09:30am 12.2 W 14 19 1001.0 - 0.0 - - - - - - -
25/09:00am 12.5 WSW 11 16 1000.7 - 9.0 - - - - - - -
25/08:30am 12.4 W 13 19 1000.6 - 9.0 - - - - - - -
25/08:00am 12.1 WSW 11 15 1000.2 - 9.0 - - - - - - -
25/07:30am 10.7 WSW 15 33 999.9 - 9.0 - - - - - - -
25/07:20am 11.8 WSW 17 33 999.3 - 8.0 - - - - - - -
25/07:19am 12.4 W 16 29 999.4 - 8.0 - - - - - - -
25/07:00am 12.2 W 12 16 999.4 - 8.0 - - - - - - -
25/06:30am 12.4 WSW 14 18 999.4 - 8.0 - - - - - - -
25/06:00am 12.2 WSW 13 17 999.0 - 8.0 - - - - - - -
25/05:30am 12.4 WSW 16 20 998.8 - 8.0 - - - - - - -
25/05:00am 12.3 WSW 16 24 998.6 - 8.0 - - - - - - -
25/04:30am 12.3 WSW 17 22 999.3 - 8.0 - - - - - - -
25/04:00am 12.3 WSW 15 18 998.7 - 8.0 - - - - - - -
25/03:30am 12.6 WSW 17 21 998.5 - 7.8 - - - - - - -
25/03:00am 12.9 WSW 18 23 998.6 - 7.4 Recent precip. - - - - - -
25/02:30am 13.2 WSW 16 23 998.8 - 7.0 - - - - - - -
25/02:00am 13.5 WSW 17 25 998.6 - 6.8 - - - - - - -
25/01:30am 13.4 WNW 12 18 998.9 - 6.2 - - - - - - -
25/01:00am 13.9 WNW 15 21 998.9 - 5.4 - - - - - - -
25/12:30am 13.9 NW 13 18 999.0 - 4.8 - - - - - - -
25/12:09am 14.7 NNW 23 30 999.0 - 2.2 - - - - - - -
25/12:00am 15.0 N 27 34 998.0 - 0.6 Rain - - - - - -
 
Date/Time
EDT
Temp

°C
Wind Pressure Rain
since 9am
mm
Weather Cloud Vis
km
Sea
Height
m
Swell
Dir
 
Speed
knots
Gust
knots
hPa Trend Height
m
Period
s
Dir
24/11:51pm 15.7 N 23 34 997.9 - 0.0 - - - - - - -
24/11:30pm 16.1 N 26 35 998.2 - 0.0 - - - - - - -
24/11:28pm 16.4 N 25 35 998.1 - 0.0 - - - - - - -
24/11:00pm 16.6 N 22 27 998.6 - 0.0 - - - - - - -
24/10:30pm 16.6 N 24 29 999.0 - 0.0 - - - - - - -
24/10:00pm 16.7 N 21 27 999.2 - 0.0 - - - - - - -
24/09:30pm 16.6 NNW 22 27 999.1 - 0.0 - - - - - - -
24/09:00pm 16.4 NNW 20 28 999.1 - 0.0 - - - - - - -
24/08:30pm 16.1 NNW 18 26 999.3 - 0.0 - - - - - - -
24/08:00pm 16.4 NNW 19 27 999.4 - 0.0 - - - - - - -
24/07:35pm 16.5 NNW 18 28 999.4 - 0.0 - - - - - - -
24/07:30pm 16.6 NNW 17 27 999.4 - 0.0 - - - - - - -
24/07:00pm 16.7 NNW 20 26 999.2 - 0.0 - - - - - - -
24/06:30pm 17.1 NW 21 26 999.3 - 0.0 - - - - - - -
24/06:00pm 17.5 NNW 16 21 999.5 - 0.0 - - - - - - -
24/05:30pm 17.4 NNW 13 20 999.9 - 0.0 - - - - - - -
24/05:00pm 17.3 NNW 15 18 1000.2 - 0.0 - - - - - - -
24/04:30pm 17.5 NNW 20 26 1000.5 - 0.0 - - - - - - -
24/04:00pm 17.0 NNW 18 25 1001.0 - 0.0 - - - - - - -
24/03:30pm 17.3 NNW 19 25 1001.5 - 0.0 - - - - - - -
24/03:00pm 17.5 NNW 16 22 1001.8 - 0.0 - - - - - - -
24/02:30pm 17.4 NW 17 21 1002.1 - 0.0 - - - - - - -
24/02:00pm 17.9 NNW 10 16 1002.3 - 0.0 - - - - - - -
24/01:30pm 17.2 NNW 10 13 1002.4 - 0.0 - - - - - - -
24/01:00pm 17.4 N 11 14 1002.4 - 0.0 - - - - - - -
24/12:30pm 16.6 NNW 12 15 1003.2 - 0.0 - - - - - - -
24/12:00pm 15.9 NNW 15 21 1003.5 - 0.0 - - - - - - -
24/11:30am 15.8 N 16 20 1003.8 - 0.0 - - - - - - -
24/11:00am 15.7 N 16 19 1004.3 - 0.0 - - - - - - -
24/10:30am 15.0 N 16 19 1004.5 - 0.0 - - - - - - -
24/10:00am 14.7 N 12 15 1004.7 - 0.0 - - - - - - -
24/09:30am 14.7 NNE 14 16 1004.7 - 0.0 - - - - - - -
24/09:00am 14.0 NNE 15 17 1004.9 - 0.0 - - - - - - -
24/08:30am 13.4 NNE 14 17 1004.9 - 0.0 - - - - - - -
24/08:00am 12.8 NNE 13 16 1004.8 - 0.0 - - - - - - -
24/07:30am 12.3 NNE 13 15 1004.6 - 0.0 - - - - - - -
24/07:00am 11.7 NNE 12 14 1004.7 - 0.0 - - - - - - -
24/06:30am 11.9 NNE 12 15 1004.6 - 0.0 - - - - - - -
24/06:00am 11.8 NE 10 13 1004.5 - 0.0 - - - - - - -
24/05:30am 11.8 NNE 10 12 1004.7 - 0.0 - - - - - - -
24/05:00am 11.8 NNE 11 15 1005.0 - 0.0 - - - - - - -
24/04:30am 11.4 NNE 9 13 1005.1 - 0.0 - - - - - - -
24/04:00am 9.9 ENE 9 10 1005.1 - 0.0 - - - - - - -
24/03:30am 10.8 ENE 10 12 1005.5 - 0.0 - - - - - - -
24/03:00am 12.9 N 6 7 1005.6 - 0.0 - - - - - - -
24/02:30am 12.6 N 8 9 1006.0 - 0.0 - - - - - - -
24/02:00am 12.7 NNE 8 10 1006.6 - 0.0 - - - - - - -
24/01:30am 13.0 NNE 9 10 1007.2 - 0.0 - - - - - - -
24/01:00am 13.3 NNE 9 11 1007.2 - 0.0 - - - - - - -
24/12:30am 13.2 NNE 9 11 1007.3 - 0.0 - - - - - - -
24/12:00am 11.9 E 6 7 1007.3 - 0.0 - - - - - - -
 
Date/Time
EDT
Temp

°C
Wind Pressure Rain
since 9am
mm
Weather Cloud Vis
km
Sea
Height
m
Swell
Dir
 
Speed
knots
Gust
knots
hPa Trend Height
m
Period
s
Dir
23/11:30pm 13.0 NNW 2 3 1007.3 - 0.0 - - - - - - -
23/11:00pm 13.1 NNW 1 3 1007.5 - 0.0 - - - - - - -
23/10:30pm 12.8 NW 2 3 1007.7 - 0.0 - - - - - - -
23/10:00pm 12.5 WNW 3 5 1007.8 - 0.0 - - - - - - -
23/09:30pm 12.7 WNW 4 5 1007.5 - 0.0 - - - - - - -
23/09:00pm 12.8 WNW 4 5 1007.0 - 0.0 - - - - - - -
23/08:30pm 14.0 WSW 4 7 1007.1 - 0.0 - - - - - - -
23/08:00pm 14.3 WSW 7 10 1007.3 - 0.0 - - - - - - -
23/07:30pm 14.9 WSW 9 11 1007.3 - 0.0 - - - - - - -

Other Formats:

Comma delimited format used in spreadsheet applications
http://www.bom.gov.au/fwo/IDT60701/IDT60701.94974.axf

JavaScript Object Notation format (JSON) in row-major order
http://www.bom.gov.au/fwo/IDT60701/IDT60701.94974.json